createdAt,value
2023-04-30T16:26:21.530Z,16.06
2023-04-30T16:28:54.032Z,16.60
2023-04-30T16:31:27.310Z,17.16
2023-04-30T16:33:59.595Z,17.64
2023-04-30T16:36:34.072Z,17.81
2023-04-30T16:39:06.476Z,17.79
2023-04-30T16:41:39.597Z,17.77
2023-04-30T16:44:11.568Z,18.01
2023-04-30T16:46:44.429Z,18.08
2023-04-30T16:49:17.144Z,18.04
2023-04-30T16:51:49.185Z,18.01
2023-04-30T16:54:22.590Z,17.81
2023-04-30T16:56:55.606Z,18.07
2023-04-30T16:59:29.221Z,17.00
2023-04-30T17:02:01.390Z,17.75
2023-04-30T17:04:33.647Z,17.33
2023-04-30T17:07:06.562Z,17.37
2023-04-30T17:09:39.748Z,17.81
2023-04-30T17:12:12.012Z,18.41
2023-04-30T17:14:44.876Z,17.85
2023-04-30T17:17:16.672Z,17.59
2023-04-30T17:19:48.342Z,18.14
2023-04-30T17:22:20.079Z,18.62
2023-04-30T17:24:51.766Z,18.41
2023-04-30T17:27:23.350Z,18.28
2023-04-30T17:29:55.380Z,18.29
2023-04-30T17:32:27.404Z,18.12
2023-04-30T17:34:59.149Z,17.97
2023-04-30T17:37:30.886Z,17.94
2023-04-30T17:40:02.861Z,18.43
2023-04-30T17:42:34.713Z,18.22
2023-04-30T17:45:06.982Z,17.66
2023-04-30T17:47:38.849Z,18.12
2023-04-30T17:50:10.673Z,18.35
2023-04-30T17:52:42.628Z,18.00
2023-04-30T17:55:14.392Z,18.02
2023-04-30T17:57:46.219Z,17.75
2023-04-30T18:00:18.415Z,17.92
2023-04-30T18:02:50.385Z,17.65
2023-04-30T18:05:22.352Z,17.40
2023-04-30T18:07:54.251Z,17.38
2023-04-30T18:10:26.123Z,17.10
2023-04-30T18:12:58.716Z,17.28
2023-04-30T18:15:30.636Z,17.31
2023-04-30T18:18:02.588Z,18.23
2023-04-30T18:20:34.716Z,17.84
2023-04-30T18:23:09.205Z,16.95
2023-04-30T18:25:41.789Z,16.44
2023-04-30T18:28:14.156Z,16.15
2023-04-30T18:30:45.900Z,15.80
2023-04-30T18:33:17.827Z,15.46
2023-04-30T18:35:49.587Z,15.78
2023-04-30T18:38:21.585Z,15.78
2023-04-30T18:40:54.545Z,15.62
2023-04-30T18:43:27.137Z,16.01
2023-04-30T18:45:59.644Z,16.25
2023-04-30T18:48:31.822Z,16.36
2023-04-30T18:51:04.648Z,16.07
2023-04-30T18:53:37.448Z,16.06
2023-04-30T18:56:10.107Z,16.05
2023-04-30T18:58:45.145Z,16.29
2023-04-30T19:01:19.547Z,15.64
2023-04-30T19:03:51.652Z,15.30
2023-04-30T19:06:23.750Z,15.26
2023-04-30T19:08:55.864Z,15.65
2023-04-30T19:11:28.925Z,15.54
2023-04-30T19:14:03.946Z,15.56
2023-04-30T19:16:36.046Z,15.65
2023-04-30T19:19:09.092Z,15.83
2023-04-30T19:21:41.798Z,15.35
2023-04-30T19:24:13.944Z,15.34
2023-04-30T19:26:46.708Z,15.62
2023-04-30T19:29:20.171Z,15.78
2023-04-30T19:31:54.347Z,15.67
2023-04-30T19:34:27.452Z,15.84
2023-04-30T19:36:59.895Z,16.77
2023-04-30T19:39:32.438Z,16.90
2023-04-30T19:42:04.886Z,16.75
2023-04-30T19:44:36.904Z,17.10
2023-04-30T19:47:08.501Z,17.10
2023-04-30T19:49:40.268Z,17.06
2023-04-30T19:52:11.960Z,17.12
2023-04-30T19:54:43.631Z,17.11
2023-04-30T19:57:15.673Z,17.34
2023-04-30T19:59:47.497Z,16.92
2023-04-30T20:02:19.488Z,16.89
2023-04-30T20:04:51.367Z,17.14
2023-04-30T20:07:23.072Z,17.24
2023-04-30T20:09:54.903Z,17.55
2023-04-30T20:12:26.753Z,17.34
2023-04-30T20:14:58.755Z,17.28
2023-04-30T20:17:30.641Z,17.52
2023-04-30T20:20:02.647Z,17.53
2023-04-30T20:22:34.479Z,17.63
2023-04-30T20:25:06.644Z,17.88
2023-04-30T20:27:38.694Z,17.11
2023-04-30T20:30:11.741Z,17.30
2023-04-30T20:32:43.493Z,17.54
2023-04-30T20:35:15.521Z,17.47
2023-04-30T20:37:47.285Z,16.80
2023-04-30T20:40:19.643Z,16.55
2023-04-30T20:42:51.478Z,16.24
2023-04-30T20:45:23.309Z,16.69
2023-04-30T20:47:55.744Z,17.05
2023-04-30T20:50:27.666Z,16.70
2023-04-30T20:52:59.370Z,17.40
2023-04-30T20:55:31.339Z,17.11
2023-04-30T20:58:03.102Z,16.80
2023-04-30T21:00:35.088Z,17.54
2023-04-30T21:03:07.178Z,17.48
2023-04-30T21:05:38.997Z,17.46
2023-04-30T21:08:12.011Z,17.32
2023-04-30T21:10:44.174Z,17.14
2023-04-30T21:13:16.432Z,16.64
2023-04-30T21:15:52.592Z,16.58
2023-04-30T21:18:25.897Z,16.92
2023-04-30T21:21:06.951Z,16.48
2023-04-30T21:23:39.763Z,16.15
2023-04-30T21:26:11.701Z,16.11
2023-04-30T21:28:44.303Z,16.69
2023-04-30T21:31:16.797Z,16.91
2023-04-30T21:33:49.439Z,16.46
2023-04-30T21:36:21.719Z,16.52
2023-04-30T21:38:53.813Z,17.25
2023-04-30T21:41:26.765Z,16.98
2023-04-30T21:43:59.429Z,16.69
2023-04-30T21:46:31.747Z,16.80
2023-04-30T21:49:04.614Z,16.73
2023-04-30T21:51:39.093Z,17.26
2023-04-30T21:54:11.473Z,17.31
2023-04-30T21:56:44.898Z,17.37
2023-04-30T21:59:17.955Z,16.82
2023-04-30T22:01:50.544Z,16.66
2023-04-30T22:04:23.961Z,16.83
2023-04-30T22:06:56.585Z,16.34
2023-04-30T22:09:29.713Z,16.86
2023-04-30T22:12:01.387Z,17.01
2023-04-30T22:14:33.076Z,16.83
2023-04-30T22:17:04.645Z,16.91
2023-04-30T22:19:36.409Z,16.59
2023-04-30T22:22:08.302Z,17.09
2023-04-30T22:24:40.080Z,17.07
2023-04-30T22:27:11.947Z,17.25
2023-04-30T22:29:44.168Z,17.51
2023-04-30T22:32:16.245Z,17.25
2023-04-30T22:34:47.975Z,17.30
2023-04-30T22:37:19.771Z,16.75
2023-04-30T22:39:51.429Z,16.97
2023-04-30T22:42:23.261Z,16.29
2023-04-30T22:44:55.448Z,16.25
2023-04-30T22:47:27.781Z,16.27
2023-04-30T22:49:59.693Z,16.65
2023-04-30T22:52:32.259Z,16.80
2023-04-30T22:55:04.319Z,16.99
2023-04-30T22:57:36.588Z,16.86
2023-04-30T23:00:08.857Z,16.87
2023-04-30T23:02:40.727Z,16.85
2023-04-30T23:05:12.406Z,17.00
2023-04-30T23:07:44.321Z,16.54
2023-04-30T23:10:17.099Z,16.77
2023-04-30T23:12:49.015Z,16.84
2023-04-30T23:15:21.053Z,16.96
2023-04-30T23:17:52.997Z,16.14
2023-04-30T23:20:25.134Z,16.42
2023-04-30T23:22:56.867Z,16.82
2023-04-30T23:25:28.705Z,16.79
2023-04-30T23:28:00.509Z,16.89
2023-04-30T23:30:32.607Z,16.87
2023-04-30T23:33:04.935Z,16.95
2023-04-30T23:35:41.758Z,16.86
2023-04-30T23:38:14.996Z,17.00
2023-04-30T23:40:47.080Z,17.24
2023-04-30T23:43:19.518Z,16.88
2023-04-30T23:45:51.672Z,17.19
2023-04-30T23:48:23.802Z,16.67
2023-04-30T23:51:03.760Z,16.82
2023-04-30T23:53:35.960Z,16.35
2023-04-30T23:56:09.984Z,16.72
2023-04-30T23:58:41.755Z,16.64
